sensor_id;sensor_type;location;lat;lon;timestamp;temperature;humidity
47336;DHT22;33068;51.990;5.926;2023-05-10T00:01:43;12.80;99.90
47336;DHT22;33068;51.990;5.926;2023-05-10T00:04:12;12.80;99.90
47336;DHT22;33068;51.990;5.926;2023-05-10T00:06:39;12.70;99.90
47336;DHT22;33068;51.990;5.926;2023-05-10T00:09:06;12.80;99.90
47336;DHT22;33068;51.990;5.926;2023-05-10T00:11:33;12.80;99.90
47336;DHT22;33068;51.990;5.926;2023-05-10T00:14:00;12.80;99.90
47336;DHT22;33068;51.990;5.926;2023-05-10T00:16:27;12.80;99.90
47336;DHT22;33068;51.990;5.926;2023-05-10T00:18:54;12.80;99.90
47336;DHT22;33068;51.990;5.926;2023-05-10T00:21:23;12.90;99.90
47336;DHT22;33068;51.990;5.926;2023-05-10T00:23:50;12.90;99.90
47336;DHT22;33068;51.990;5.926;2023-05-10T00:26:17;12.90;99.90
47336;DHT22;33068;51.990;5.926;2023-05-10T00:28:49;12.90;99.90
47336;DHT22;33068;51.990;5.926;2023-05-10T00:31:17;12.90;99.90
47336;DHT22;33068;51.990;5.926;2023-05-10T00:33:44;12.90;99.90
47336;DHT22;33068;51.990;5.926;2023-05-10T00:36:11;12.90;99.90
47336;DHT22;33068;51.990;5.926;2023-05-10T00:38:42;12.90;99.90
47336;DHT22;33068;51.990;5.926;2023-05-10T00:41:09;12.90;99.90
47336;DHT22;33068;51.990;5.926;2023-05-10T00:43:38;12.90;99.90
47336;DHT22;33068;51.990;5.926;2023-05-10T00:46:05;12.90;99.90
47336;DHT22;33068;51.990;5.926;2023-05-10T00:48:33;12.90;99.90
47336;DHT22;33068;51.990;5.926;2023-05-10T00:51:01;12.90;99.90
47336;DHT22;33068;51.990;5.926;2023-05-10T00:53:28;12.90;99.90
47336;DHT22;33068;51.990;5.926;2023-05-10T00:55:59;12.90;99.90
47336;DHT22;33068;51.990;5.926;2023-05-10T00:58:27;13.00;99.90
47336;DHT22;33068;51.990;5.926;2023-05-10T01:00:56;13.00;99.90
47336;DHT22;33068;51.990;5.926;2023-05-10T01:05:55;13.00;99.90
47336;DHT22;33068;51.990;5.926;2023-05-10T01:08:23;12.90;99.90
47336;DHT22;33068;51.990;5.926;2023-05-10T01:10:50;13.00;99.90
47336;DHT22;33068;51.990;5.926;2023-05-10T01:13:23;13.00;99.90
47336;DHT22;33068;51.990;5.926;2023-05-10T01:15:52;13.00;99.90
47336;DHT22;33068;51.990;5.926;2023-05-10T01:18:21;13.00;99.90
47336;DHT22;33068;51.990;5.926;2023-05-10T01:20:48;13.00;99.90
47336;DHT22;33068;51.990;5.926;2023-05-10T01:23:31;12.90;99.90
47336;DHT22;33068;51.990;5.926;2023-05-10T01:26:05;13.00;99.90
47336;DHT22;33068;51.990;5.926;2023-05-10T01:31:20;13.00;99.90
47336;DHT22;33068;51.990;5.926;2023-05-10T01:33:51;13.00;99.90
47336;DHT22;33068;51.990;5.926;2023-05-10T01:36:21;13.00;99.90
47336;DHT22;33068;51.990;5.926;2023-05-10T01:38:53;12.90;99.90
47336;DHT22;33068;51.990;5.926;2023-05-10T01:41:25;13.00;99.90
47336;DHT22;33068;51.990;5.926;2023-05-10T01:43:55;13.20;99.90
47336;DHT22;33068;51.990;5.926;2023-05-10T01:46:26;13.00;99.90
47336;DHT22;33068;51.990;5.926;2023-05-10T01:48:55;13.00;99.90
47336;DHT22;33068;51.990;5.926;2023-05-10T01:51:24;13.00;99.90
47336;DHT22;33068;51.990;5.926;2023-05-10T01:53:54;13.10;99.90
47336;DHT22;33068;51.990;5.926;2023-05-10T01:56:22;13.00;99.90
47336;DHT22;33068;51.990;5.926;2023-05-10T01:58:50;13.10;99.90
47336;DHT22;33068;51.990;5.926;2023-05-10T02:01:18;13.00;99.90
47336;DHT22;33068;51.990;5.926;2023-05-10T02:03:47;13.10;99.90
47336;DHT22;33068;51.990;5.926;2023-05-10T02:06:16;13.00;99.90
47336;DHT22;33068;51.990;5.926;2023-05-10T02:08:43;13.00;99.90
47336;DHT22;33068;51.990;5.926;2023-05-10T02:11:11;13.00;99.90
47336;DHT22;33068;51.990;5.926;2023-05-10T02:13:39;13.00;99.90
47336;DHT22;33068;51.990;5.926;2023-05-10T02:16:06;13.10;99.90
47336;DHT22;33068;51.990;5.926;2023-05-10T02:18:33;13.00;99.90
47336;DHT22;33068;51.990;5.926;2023-05-10T02:21:01;13.00;99.90
47336;DHT22;33068;51.990;5.926;2023-05-10T02:23:29;13.10;99.90
47336;DHT22;33068;51.990;5.926;2023-05-10T02:25:57;13.00;99.90
47336;DHT22;33068;51.990;5.926;2023-05-10T02:28:24;13.10;99.90
47336;DHT22;33068;51.990;5.926;2023-05-10T02:30:52;13.00;99.90
47336;DHT22;33068;51.990;5.926;2023-05-10T02:33:19;13.00;99.90
47336;DHT22;33068;51.990;5.926;2023-05-10T02:35:47;13.00;99.90
47336;DHT22;33068;51.990;5.926;2023-05-10T02:38:14;13.00;99.90
47336;DHT22;33068;51.990;5.926;2023-05-10T02:40:42;13.00;99.90
47336;DHT22;33068;51.990;5.926;2023-05-10T02:43:11;13.10;99.90
47336;DHT22;33068;51.990;5.926;2023-05-10T02:45:38;13.10;99.90
47336;DHT22;33068;51.990;5.926;2023-05-10T02:48:06;13.00;99.90
47336;DHT22;33068;51.990;5.926;2023-05-10T02:50:34;13.00;99.90
47336;DHT22;33068;51.990;5.926;2023-05-10T02:53:09;13.00;99.90
47336;DHT22;33068;51.990;5.926;2023-05-10T02:55:36;13.00;99.90
47336;DHT22;33068;51.990;5.926;2023-05-10T02:58:06;13.00;99.90
47336;DHT22;33068;51.990;5.926;2023-05-10T03:00:33;13.00;99.90
47336;DHT22;33068;51.990;5.926;2023-05-10T03:03:02;13.00;99.90
47336;DHT22;33068;51.990;5.926;2023-05-10T03:05:29;13.00;99.90
47336;DHT22;33068;51.990;5.926;2023-05-10T03:07:59;13.00;99.90
47336;DHT22;33068;51.990;5.926;2023-05-10T03:10:30;13.00;99.90
47336;DHT22;33068;51.990;5.926;2023-05-10T03:13:10;13.00;99.90
47336;DHT22;33068;51.990;5.926;2023-05-10T03:15:50;13.00;99.90
47336;DHT22;33068;51.990;5.926;2023-05-10T03:18:22;13.00;99.90
47336;DHT22;33068;51.990;5.926;2023-05-10T03:20:51;13.00;99.90
47336;DHT22;33068;51.990;5.926;2023-05-10T03:23:26;13.00;99.90
47336;DHT22;33068;51.990;5.926;2023-05-10T03:25:54;12.90;99.90
47336;DHT22;33068;51.990;5.926;2023-05-10T03:28:24;12.90;99.90
47336;DHT22;33068;51.990;5.926;2023-05-10T03:30:52;12.90;99.90
47336;DHT22;33068;51.990;5.926;2023-05-10T03:33:20;12.90;99.90
47336;DHT22;33068;51.990;5.926;2023-05-10T03:35:47;12.90;99.90
47336;DHT22;33068;51.990;5.926;2023-05-10T03:38:15;12.90;99.90
47336;DHT22;33068;51.990;5.926;2023-05-10T03:40:42;12.90;99.90
47336;DHT22;33068;51.990;5.926;2023-05-10T03:43:09;12.70;99.90
47336;DHT22;33068;51.990;5.926;2023-05-10T03:45:37;12.80;99.90
47336;DHT22;33068;51.990;5.926;2023-05-10T03:48:05;12.90;99.90
47336;DHT22;33068;51.990;5.926;2023-05-10T03:50:32;12.80;99.90
47336;DHT22;33068;51.990;5.926;2023-05-10T03:52:59;12.70;99.90
47336;DHT22;33068;51.990;5.926;2023-05-10T03:55:28;12.70;99.90
47336;DHT22;33068;51.990;5.926;2023-05-10T03:57:56;12.70;99.90
47336;DHT22;33068;51.990;5.926;2023-05-10T04:00:23;12.70;99.90
47336;DHT22;33068;51.990;5.926;2023-05-10T04:02:54;12.70;99.90
47336;DHT22;33068;51.990;5.926;2023-05-10T04:05:22;12.60;99.90
47336;DHT22;33068;51.990;5.926;2023-05-10T04:07:51;12.70;99.90
47336;DHT22;33068;51.990;5.926;2023-05-10T04:10:18;12.70;99.90
47336;DHT22;33068;51.990;5.926;2023-05-10T04:12:46;12.70;99.90
47336;DHT22;33068;51.990;5.926;2023-05-10T04:15:13;12.70;99.90
47336;DHT22;33068;51.990;5.926;2023-05-10T04:17:40;12.60;99.90
47336;DHT22;33068;51.990;5.926;2023-05-10T04:20:10;12.60;99.90
47336;DHT22;33068;51.990;5.926;2023-05-10T04:22:37;12.60;99.90
47336;DHT22;33068;51.990;5.926;2023-05-10T04:25:05;12.70;99.90
47336;DHT22;33068;51.990;5.926;2023-05-10T04:27:32;12.70;99.90
47336;DHT22;33068;51.990;5.926;2023-05-10T04:29:59;12.60;99.90
47336;DHT22;33068;51.990;5.926;2023-05-10T04:32:26;12.60;99.90
47336;DHT22;33068;51.990;5.926;2023-05-10T04:34:53;12.60;99.90
47336;DHT22;33068;51.990;5.926;2023-05-10T04:37:22;12.60;99.90
47336;DHT22;33068;51.990;5.926;2023-05-10T04:39:49;12.80;99.90
47336;DHT22;33068;51.990;5.926;2023-05-10T04:42:16;12.70;99.90
47336;DHT22;33068;51.990;5.926;2023-05-10T04:44:43;12.70;99.90
47336;DHT22;33068;51.990;5.926;2023-05-10T04:47:10;12.60;99.90
47336;DHT22;33068;51.990;5.926;2023-05-10T04:49:38;12.60;99.90
47336;DHT22;33068;51.990;5.926;2023-05-10T04:52:05;12.60;99.90
47336;DHT22;33068;51.990;5.926;2023-05-10T04:54:34;12.60;99.90
47336;DHT22;33068;51.990;5.926;2023-05-10T04:57:01;12.60;99.90
47336;DHT22;33068;51.990;5.926;2023-05-10T04:59:28;12.60;99.90
47336;DHT22;33068;51.990;5.926;2023-05-10T05:01:55;12.60;99.90
47336;DHT22;33068;51.990;5.926;2023-05-10T05:04:22;12.60;99.90
47336;DHT22;33068;51.990;5.926;2023-05-10T05:06:49;12.60;99.90
47336;DHT22;33068;51.990;5.926;2023-05-10T05:09:16;12.60;99.90
47336;DHT22;33068;51.990;5.926;2023-05-10T05:11:45;12.70;99.90
47336;DHT22;33068;51.990;5.926;2023-05-10T05:14:12;12.70;99.90
47336;DHT22;33068;51.990;5.926;2023-05-10T05:16:39;12.70;99.90
47336;DHT22;33068;51.990;5.926;2023-05-10T05:19:06;12.70;99.90
47336;DHT22;33068;51.990;5.926;2023-05-10T05:21:33;12.70;99.90
47336;DHT22;33068;51.990;5.926;2023-05-10T05:24:00;12.70;99.90
47336;DHT22;33068;51.990;5.926;2023-05-10T05:26:27;12.70;99.90
47336;DHT22;33068;51.990;5.926;2023-05-10T05:28:55;12.80;99.90
47336;DHT22;33068;51.990;5.926;2023-05-10T05:31:22;12.80;99.90
47336;DHT22;33068;51.990;5.926;2023-05-10T05:33:49;12.80;99.90
47336;DHT22;33068;51.990;5.926;2023-05-10T05:36:17;12.80;99.90
47336;DHT22;33068;51.990;5.926;2023-05-10T05:38:44;12.80;99.90
47336;DHT22;33068;51.990;5.926;2023-05-10T05:41:12;13.00;99.90
47336;DHT22;33068;51.990;5.926;2023-05-10T05:43:39;12.90;99.90
47336;DHT22;33068;51.990;5.926;2023-05-10T05:46:07;13.00;99.90
47336;DHT22;33068;51.990;5.926;2023-05-10T05:48:34;12.90;99.90
47336;DHT22;33068;51.990;5.926;2023-05-10T05:51:01;12.90;99.90
47336;DHT22;33068;51.990;5.926;2023-05-10T05:53:28;13.00;99.90
47336;DHT22;33068;51.990;5.926;2023-05-10T05:55:56;13.10;99.90
47336;DHT22;33068;51.990;5.926;2023-05-10T05:58:24;13.20;99.90
47336;DHT22;33068;51.990;5.926;2023-05-10T06:00:51;13.30;99.90
47336;DHT22;33068;51.990;5.926;2023-05-10T06:03:20;13.30;99.90
47336;DHT22;33068;51.990;5.926;2023-05-10T06:05:47;13.30;99.90
47336;DHT22;33068;51.990;5.926;2023-05-10T06:08:14;13.30;99.90
47336;DHT22;33068;51.990;5.926;2023-05-10T06:10:41;13.30;99.90
47336;DHT22;33068;51.990;5.926;2023-05-10T06:13:08;13.30;99.90
47336;DHT22;33068;51.990;5.926;2023-05-10T06:15:35;13.30;99.90
47336;DHT22;33068;51.990;5.926;2023-05-10T06:18:02;13.30;99.90
47336;DHT22;33068;51.990;5.926;2023-05-10T06:20:31;13.30;99.90
47336;DHT22;33068;51.990;5.926;2023-05-10T06:22:58;13.30;99.90
47336;DHT22;33068;51.990;5.926;2023-05-10T06:25:25;13.30;99.90
47336;DHT22;33068;51.990;5.926;2023-05-10T06:27:52;13.30;99.90
47336;DHT22;33068;51.990;5.926;2023-05-10T06:30:24;13.30;99.90
47336;DHT22;33068;51.990;5.926;2023-05-10T06:32:53;13.30;99.90
47336;DHT22;33068;51.990;5.926;2023-05-10T06:35:21;13.30;99.90
47336;DHT22;33068;51.990;5.926;2023-05-10T06:37:49;13.30;99.90
47336;DHT22;33068;51.990;5.926;2023-05-10T06:40:17;13.30;99.90
47336;DHT22;33068;51.990;5.926;2023-05-10T06:42:44;13.30;99.90
47336;DHT22;33068;51.990;5.926;2023-05-10T06:45:12;13.30;99.90
47336;DHT22;33068;51.990;5.926;2023-05-10T06:47:40;13.20;99.90
47336;DHT22;33068;51.990;5.926;2023-05-10T06:50:08;13.20;99.90
47336;DHT22;33068;51.990;5.926;2023-05-10T06:52:35;13.20;99.90
47336;DHT22;33068;51.990;5.926;2023-05-10T06:55:04;13.20;99.90
47336;DHT22;33068;51.990;5.926;2023-05-10T06:57:31;13.20;99.90
47336;DHT22;33068;51.990;5.926;2023-05-10T06:59:58;13.20;99.90
47336;DHT22;33068;51.990;5.926;2023-05-10T07:02:25;13.20;99.90
47336;DHT22;33068;51.990;5.926;2023-05-10T07:04:52;13.20;99.90
47336;DHT22;33068;51.990;5.926;2023-05-10T07:07:20;13.30;99.90
47336;DHT22;33068;51.990;5.926;2023-05-10T07:09:47;13.30;99.90
47336;DHT22;33068;51.990;5.926;2023-05-10T07:12:16;13.40;99.90
47336;DHT22;33068;51.990;5.926;2023-05-10T07:14:44;13.40;99.90
47336;DHT22;33068;51.990;5.926;2023-05-10T07:17:11;13.50;99.90
47336;DHT22;33068;51.990;5.926;2023-05-10T07:19:38;13.50;99.90
47336;DHT22;33068;51.990;5.926;2023-05-10T07:22:05;13.50;99.90
47336;DHT22;33068;51.990;5.926;2023-05-10T07:24:32;13.60;99.90
47336;DHT22;33068;51.990;5.926;2023-05-10T07:26:59;13.60;99.90
47336;DHT22;33068;51.990;5.926;2023-05-10T07:29:27;13.70;99.90
47336;DHT22;33068;51.990;5.926;2023-05-10T07:31:54;13.70;99.90
47336;DHT22;33068;51.990;5.926;2023-05-10T07:34:21;13.70;99.90
47336;DHT22;33068;51.990;5.926;2023-05-10T07:36:48;13.70;99.90
47336;DHT22;33068;51.990;5.926;2023-05-10T07:39:15;13.80;99.90
47336;DHT22;33068;51.990;5.926;2023-05-10T07:41:43;13.90;99.90
47336;DHT22;33068;51.990;5.926;2023-05-10T07:44:09;14.00;99.90
47336;DHT22;33068;51.990;5.926;2023-05-10T07:46:38;14.10;99.90
47336;DHT22;33068;51.990;5.926;2023-05-10T07:49:05;14.20;99.90
47336;DHT22;33068;51.990;5.926;2023-05-10T07:51:32;14.10;99.90
47336;DHT22;33068;51.990;5.926;2023-05-10T07:53:59;14.20;99.90
47336;DHT22;33068;51.990;5.926;2023-05-10T07:56:29;14.10;99.90
47336;DHT22;33068;51.990;5.926;2023-05-10T07:58:57;14.20;99.90
47336;DHT22;33068;51.990;5.926;2023-05-10T08:01:25;14.20;99.90
47336;DHT22;33068;51.990;5.926;2023-05-10T08:03:56;14.20;99.90
47336;DHT22;33068;51.990;5.926;2023-05-10T08:06:23;14.30;99.90
47336;DHT22;33068;51.990;5.926;2023-05-10T08:08:52;14.30;99.90
47336;DHT22;33068;51.990;5.926;2023-05-10T08:11:20;14.30;99.90
47336;DHT22;33068;51.990;5.926;2023-05-10T08:13:48;14.20;99.90
47336;DHT22;33068;51.990;5.926;2023-05-10T08:16:15;14.20;99.90
47336;DHT22;33068;51.990;5.926;2023-05-10T08:18:44;14.40;99.90
47336;DHT22;33068;51.990;5.926;2023-05-10T08:21:13;14.60;99.90
47336;DHT22;33068;51.990;5.926;2023-05-10T08:23:41;14.60;99.90
47336;DHT22;33068;51.990;5.926;2023-05-10T08:26:09;14.60;99.90
47336;DHT22;33068;51.990;5.926;2023-05-10T08:28:36;14.70;99.90
47336;DHT22;33068;51.990;5.926;2023-05-10T08:31:03;14.80;99.90
47336;DHT22;33068;51.990;5.926;2023-05-10T08:33:30;14.90;99.90
47336;DHT22;33068;51.990;5.926;2023-05-10T08:35:57;14.80;99.90
47336;DHT22;33068;51.990;5.926;2023-05-10T08:38:26;14.60;99.90
47336;DHT22;33068;51.990;5.926;2023-05-10T08:40:54;14.60;99.90
47336;DHT22;33068;51.990;5.926;2023-05-10T08:43:27;14.60;99.90
47336;DHT22;33068;51.990;5.926;2023-05-10T08:45:55;14.50;99.90
47336;DHT22;33068;51.990;5.926;2023-05-10T08:48:23;14.50;99.90
47336;DHT22;33068;51.990;5.926;2023-05-10T08:50:53;14.40;99.90
47336;DHT22;33068;51.990;5.926;2023-05-10T08:53:25;14.30;99.90
47336;DHT22;33068;51.990;5.926;2023-05-10T08:55:53;14.30;99.90
47336;DHT22;33068;51.990;5.926;2023-05-10T08:58:21;14.40;99.90
47336;DHT22;33068;51.990;5.926;2023-05-10T09:00:49;14.40;99.90
47336;DHT22;33068;51.990;5.926;2023-05-10T09:03:17;14.60;99.90
47336;DHT22;33068;51.990;5.926;2023-05-10T09:05:45;14.80;99.90
47336;DHT22;33068;51.990;5.926;2023-05-10T09:08:12;14.90;99.90
47336;DHT22;33068;51.990;5.926;2023-05-10T09:10:43;14.80;99.90
47336;DHT22;33068;51.990;5.926;2023-05-10T09:13:12;14.80;99.90
47336;DHT22;33068;51.990;5.926;2023-05-10T09:15:40;14.80;99.90
47336;DHT22;33068;51.990;5.926;2023-05-10T09:18:07;15.00;99.90
47336;DHT22;33068;51.990;5.926;2023-05-10T09:20:34;15.30;99.90
47336;DHT22;33068;51.990;5.926;2023-05-10T09:23:01;15.60;99.90
47336;DHT22;33068;51.990;5.926;2023-05-10T09:25:29;15.70;99.90
47336;DHT22;33068;51.990;5.926;2023-05-10T09:27:57;15.70;99.90
47336;DHT22;33068;51.990;5.926;2023-05-10T09:30:26;15.70;99.90
47336;DHT22;33068;51.990;5.926;2023-05-10T09:32:54;15.60;99.90
47336;DHT22;33068;51.990;5.926;2023-05-10T09:35:24;15.70;99.90
47336;DHT22;33068;51.990;5.926;2023-05-10T09:37:54;15.70;99.90
47336;DHT22;33068;51.990;5.926;2023-05-10T09:40:22;15.70;99.90
47336;DHT22;33068;51.990;5.926;2023-05-10T09:42:54;15.80;99.90
47336;DHT22;33068;51.990;5.926;2023-05-10T09:45:23;15.80;99.90
47336;DHT22;33068;51.990;5.926;2023-05-10T09:47:50;15.90;99.90
47336;DHT22;33068;51.990;5.926;2023-05-10T09:50:17;15.90;99.90
47336;DHT22;33068;51.990;5.926;2023-05-10T09:52:48;15.90;99.90
47336;DHT22;33068;51.990;5.926;2023-05-10T09:55:15;15.50;99.90
47336;DHT22;33068;51.990;5.926;2023-05-10T09:57:42;15.40;99.90
47336;DHT22;33068;51.990;5.926;2023-05-10T10:00:10;15.50;99.90
47336;DHT22;33068;51.990;5.926;2023-05-10T10:02:45;15.40;99.90
47336;DHT22;33068;51.990;5.926;2023-05-10T10:05:13;15.50;99.90
47336;DHT22;33068;51.990;5.926;2023-05-10T10:07:41;15.60;99.90
47336;DHT22;33068;51.990;5.926;2023-05-10T10:10:09;15.60;99.90
47336;DHT22;33068;51.990;5.926;2023-05-10T10:12:39;15.60;99.90
47336;DHT22;33068;51.990;5.926;2023-05-10T10:15:08;15.70;99.90
47336;DHT22;33068;51.990;5.926;2023-05-10T10:17:36;15.70;99.90
47336;DHT22;33068;51.990;5.926;2023-05-10T10:20:07;15.70;99.90
47336;DHT22;33068;51.990;5.926;2023-05-10T10:22:35;15.70;99.90
47336;DHT22;33068;51.990;5.926;2023-05-10T10:25:04;15.50;99.90
47336;DHT22;33068;51.990;5.926;2023-05-10T10:27:41;15.40;99.90
47336;DHT22;33068;51.990;5.926;2023-05-10T10:30:16;15.30;99.90
47336;DHT22;33068;51.990;5.926;2023-05-10T10:35:55;15.20;99.90
47336;DHT22;33068;51.990;5.926;2023-05-10T10:38:24;15.20;99.90
47336;DHT22;33068;51.990;5.926;2023-05-10T10:41:02;15.30;99.90
47336;DHT22;33068;51.990;5.926;2023-05-10T10:43:30;15.40;99.90
47336;DHT22;33068;51.990;5.926;2023-05-10T10:46:13;15.50;99.90
47336;DHT22;33068;51.990;5.926;2023-05-10T10:48:41;15.80;99.90
47336;DHT22;33068;51.990;5.926;2023-05-10T10:51:15;16.00;99.90
47336;DHT22;33068;51.990;5.926;2023-05-10T10:53:43;16.20;99.90
47336;DHT22;33068;51.990;5.926;2023-05-10T10:56:12;16.10;99.90
47336;DHT22;33068;51.990;5.926;2023-05-10T10:58:42;16.10;99.90
47336;DHT22;33068;51.990;5.926;2023-05-10T11:01:16;16.00;99.90
47336;DHT22;33068;51.990;5.926;2023-05-10T11:04:19;16.10;99.90
47336;DHT22;33068;51.990;5.926;2023-05-10T11:06:46;16.20;99.90
47336;DHT22;33068;51.990;5.926;2023-05-10T11:09:13;15.90;99.90
47336;DHT22;33068;51.990;5.926;2023-05-10T11:11:51;16.00;99.90
47336;DHT22;33068;51.990;5.926;2023-05-10T11:14:21;15.80;99.90
47336;DHT22;33068;51.990;5.926;2023-05-10T11:16:48;15.80;99.90
47336;DHT22;33068;51.990;5.926;2023-05-10T11:19:16;16.00;99.90
47336;DHT22;33068;51.990;5.926;2023-05-10T11:21:48;16.10;99.90
47336;DHT22;33068;51.990;5.926;2023-05-10T11:24:17;16.40;99.90
47336;DHT22;33068;51.990;5.926;2023-05-10T11:26:44;16.50;99.90
47336;DHT22;33068;51.990;5.926;2023-05-10T11:29:12;16.70;99.90
47336;DHT22;33068;51.990;5.926;2023-05-10T11:31:43;16.80;99.90
47336;DHT22;33068;51.990;5.926;2023-05-10T11:34:22;16.90;99.90
47336;DHT22;33068;51.990;5.926;2023-05-10T11:36:53;16.90;99.90
47336;DHT22;33068;51.990;5.926;2023-05-10T11:39:20;17.10;99.90
47336;DHT22;33068;51.990;5.926;2023-05-10T11:41:49;17.00;99.90
47336;DHT22;33068;51.990;5.926;2023-05-10T11:44:17;17.30;99.90
47336;DHT22;33068;51.990;5.926;2023-05-10T11:46:44;17.20;99.90
47336;DHT22;33068;51.990;5.926;2023-05-10T11:49:11;17.20;99.90
47336;DHT22;33068;51.990;5.926;2023-05-10T11:51:39;17.30;99.90
47336;DHT22;33068;51.990;5.926;2023-05-10T11:54:10;17.50;99.90
47336;DHT22;33068;51.990;5.926;2023-05-10T11:56:37;17.60;99.90
47336;DHT22;33068;51.990;5.926;2023-05-10T11:59:04;17.50;99.90
47336;DHT22;33068;51.990;5.926;2023-05-10T12:01:31;17.30;99.90
47336;DHT22;33068;51.990;5.926;2023-05-10T12:03:59;17.30;99.90
47336;DHT22;33068;51.990;5.926;2023-05-10T12:06:28;17.10;99.90
47336;DHT22;33068;51.990;5.926;2023-05-10T12:08:57;17.20;99.90
47336;DHT22;33068;51.990;5.926;2023-05-10T12:11:27;17.40;99.90
47336;DHT22;33068;51.990;5.926;2023-05-10T12:13:54;17.40;99.90
47336;DHT22;33068;51.990;5.926;2023-05-10T12:16:23;17.40;99.90
47336;DHT22;33068;51.990;5.926;2023-05-10T12:18:50;17.40;99.90
47336;DHT22;33068;51.990;5.926;2023-05-10T12:21:18;17.60;99.90
47336;DHT22;33068;51.990;5.926;2023-05-10T12:23:46;17.80;99.90
47336;DHT22;33068;51.990;5.926;2023-05-10T12:26:14;18.10;99.90
47336;DHT22;33068;51.990;5.926;2023-05-10T12:28:42;18.20;99.90
47336;DHT22;33068;51.990;5.926;2023-05-10T12:31:10;18.30;99.90
47336;DHT22;33068;51.990;5.926;2023-05-10T12:33:37;18.40;99.90
47336;DHT22;33068;51.990;5.926;2023-05-10T12:36:08;18.40;99.90
47336;DHT22;33068;51.990;5.926;2023-05-10T12:38:36;18.20;99.90
47336;DHT22;33068;51.990;5.926;2023-05-10T12:41:05;17.90;99.90
47336;DHT22;33068;51.990;5.926;2023-05-10T12:43:33;18.10;99.90
47336;DHT22;33068;51.990;5.926;2023-05-10T12:46:06;18.10;99.90
47336;DHT22;33068;51.990;5.926;2023-05-10T12:48:34;18.10;99.90
47336;DHT22;33068;51.990;5.926;2023-05-10T12:51:01;18.00;99.90
47336;DHT22;33068;51.990;5.926;2023-05-10T12:53:29;18.20;99.90
47336;DHT22;33068;51.990;5.926;2023-05-10T12:55:56;18.20;99.90
47336;DHT22;33068;51.990;5.926;2023-05-10T12:58:23;18.10;99.90
47336;DHT22;33068;51.990;5.926;2023-05-10T13:00:50;18.20;99.90
47336;DHT22;33068;51.990;5.926;2023-05-10T13:03:19;18.30;99.90
47336;DHT22;33068;51.990;5.926;2023-05-10T13:05:46;18.40;99.90
47336;DHT22;33068;51.990;5.926;2023-05-10T13:08:13;18.30;99.90
47336;DHT22;33068;51.990;5.926;2023-05-10T13:10:40;18.50;99.90
47336;DHT22;33068;51.990;5.926;2023-05-10T13:13:07;18.60;99.90
47336;DHT22;33068;51.990;5.926;2023-05-10T13:15:35;18.60;99.90
47336;DHT22;33068;51.990;5.926;2023-05-10T13:18:02;18.90;99.90
47336;DHT22;33068;51.990;5.926;2023-05-10T13:20:30;18.80;99.90
47336;DHT22;33068;51.990;5.926;2023-05-10T13:22:57;18.70;99.90
47336;DHT22;33068;51.990;5.926;2023-05-10T13:25:24;18.70;99.90
47336;DHT22;33068;51.990;5.926;2023-05-10T13:27:51;18.70;99.90
47336;DHT22;33068;51.990;5.926;2023-05-10T13:30:18;18.70;99.90
47336;DHT22;33068;51.990;5.926;2023-05-10T13:32:46;18.40;99.90
47336;DHT22;33068;51.990;5.926;2023-05-10T13:35:13;18.30;99.90
47336;DHT22;33068;51.990;5.926;2023-05-10T13:37:41;18.20;99.90
47336;DHT22;33068;51.990;5.926;2023-05-10T13:40:09;18.30;99.90
47336;DHT22;33068;51.990;5.926;2023-05-10T13:42:36;18.10;99.90
47336;DHT22;33068;51.990;5.926;2023-05-10T13:45:03;17.90;99.90
47336;DHT22;33068;51.990;5.926;2023-05-10T13:47:31;17.90;99.90
47336;DHT22;33068;51.990;5.926;2023-05-10T13:49:58;17.80;99.90
47336;DHT22;33068;51.990;5.926;2023-05-10T13:52:26;17.70;99.90
47336;DHT22;33068;51.990;5.926;2023-05-10T13:54:55;17.80;99.90
47336;DHT22;33068;51.990;5.926;2023-05-10T13:57:22;17.80;99.90
47336;DHT22;33068;51.990;5.926;2023-05-10T13:59:49;17.60;99.90
47336;DHT22;33068;51.990;5.926;2023-05-10T14:02:17;17.40;99.90
47336;DHT22;33068;51.990;5.926;2023-05-10T14:04:44;17.20;99.90
47336;DHT22;33068;51.990;5.926;2023-05-10T14:07:11;17.00;99.90
47336;DHT22;33068;51.990;5.926;2023-05-10T14:09:38;16.90;99.90
47336;DHT22;33068;51.990;5.926;2023-05-10T14:12:07;16.80;99.90
47336;DHT22;33068;51.990;5.926;2023-05-10T14:14:34;16.60;99.90
47336;DHT22;33068;51.990;5.926;2023-05-10T14:17:01;16.40;99.90
47336;DHT22;33068;51.990;5.926;2023-05-10T14:19:28;16.40;99.90
47336;DHT22;33068;51.990;5.926;2023-05-10T14:21:58;16.20;99.90
47336;DHT22;33068;51.990;5.926;2023-05-10T14:24:25;16.20;99.90
47336;DHT22;33068;51.990;5.926;2023-05-10T14:26:52;16.20;99.90
47336;DHT22;33068;51.990;5.926;2023-05-10T14:29:21;16.30;99.90
47336;DHT22;33068;51.990;5.926;2023-05-10T14:31:49;16.30;99.90
47336;DHT22;33068;51.990;5.926;2023-05-10T14:34:16;16.30;99.90
47336;DHT22;33068;51.990;5.926;2023-05-10T14:36:43;16.30;99.90
47336;DHT22;33068;51.990;5.926;2023-05-10T14:39:10;16.40;99.90
47336;DHT22;33068;51.990;5.926;2023-05-10T14:41:38;16.40;99.90
47336;DHT22;33068;51.990;5.926;2023-05-10T14:44:06;16.30;99.90
47336;DHT22;33068;51.990;5.926;2023-05-10T14:46:35;16.40;99.90
47336;DHT22;33068;51.990;5.926;2023-05-10T14:49:02;16.30;99.90
47336;DHT22;33068;51.990;5.926;2023-05-10T14:51:29;16.10;99.90
47336;DHT22;33068;51.990;5.926;2023-05-10T14:53:57;15.90;99.90
47336;DHT22;33068;51.990;5.926;2023-05-10T14:56:24;15.90;99.90
47336;DHT22;33068;51.990;5.926;2023-05-10T14:58:51;15.70;99.90
47336;DHT22;33068;51.990;5.926;2023-05-10T15:01:18;15.80;99.90
47336;DHT22;33068;51.990;5.926;2023-05-10T15:03:47;15.80;99.90
47336;DHT22;33068;51.990;5.926;2023-05-10T15:06:14;15.80;99.90
47336;DHT22;33068;51.990;5.926;2023-05-10T15:08:41;16.00;99.90
47336;DHT22;33068;51.990;5.926;2023-05-10T15:11:08;16.10;99.90
47336;DHT22;33068;51.990;5.926;2023-05-10T15:13:38;16.10;99.90
47336;DHT22;33068;51.990;5.926;2023-05-10T15:16:05;16.10;99.90
47336;DHT22;33068;51.990;5.926;2023-05-10T15:18:32;16.20;99.90
47336;DHT22;33068;51.990;5.926;2023-05-10T15:21:01;16.50;99.90
47336;DHT22;33068;51.990;5.926;2023-05-10T15:23:28;16.60;99.90
47336;DHT22;33068;51.990;5.926;2023-05-10T15:25:55;16.60;99.90
47336;DHT22;33068;51.990;5.926;2023-05-10T15:28:22;16.60;99.90
47336;DHT22;33068;51.990;5.926;2023-05-10T15:30:50;16.50;99.90
47336;DHT22;33068;51.990;5.926;2023-05-10T15:33:17;16.50;99.90
47336;DHT22;33068;51.990;5.926;2023-05-10T15:35:44;16.50;99.90
47336;DHT22;33068;51.990;5.926;2023-05-10T15:38:12;16.30;99.90
47336;DHT22;33068;51.990;5.926;2023-05-10T15:40:39;16.30;99.90
47336;DHT22;33068;51.990;5.926;2023-05-10T15:43:06;16.20;99.90
47336;DHT22;33068;51.990;5.926;2023-05-10T15:45:33;16.30;99.90